Time,TemperatureF,DewpointF,PressureIn,WindDirection,WindDirectionDegrees,WindSpeedMPH,WindSpeedGustMPH,Humidity,HourlyPrecipIn,Conditions,Clouds,dailyrainin,SoftwareType,DateUTC
2013-04-19 00:02:00,49.0,-99.9,30.23,WSW,255,5.0,8.0,-999,-99.99,,,-99.99,,2013-04-19 07:02:00,
2013-04-19 00:12:00,49.0,-99.9,30.23,SW,234,3.0,8.0,-999,-99.99,,,-99.99,,2013-04-19 07:12:00,
2013-04-19 00:22:00,-999.0,-99.9,30.23,WSW,248,6.0,10.0,-999,-99.99,,,-99.99,,2013-04-19 07:22:00,
2013-04-19 00:32:00,-999.0,-99.9,30.23,WSW,257,6.0,11.0,-999,-99.99,,,-99.99,,2013-04-19 07:32:00,
2013-04-19 00:42:00,49.0,-99.9,30.23,West,261,5.0,9.0,-999,-99.99,,,-99.99,,2013-04-19 07:42:00,
2013-04-19 00:52:00,49.0,-99.9,30.24,WSW,257,6.0,11.0,-999,-99.99,,,-99.99,,2013-04-19 07:52:00,
2013-04-19 01:02:00,49.0,-99.9,30.24,West,260,4.0,8.0,-999,-99.99,,,-99.99,,2013-04-19 08:02:00,
2013-04-19 01:12:00,-999.0,-99.9,30.24,WSW,251,3.0,8.0,-999,-99.99,,,-99.99,,2013-04-19 08:12:00,
2013-04-19 01:22:00,-999.0,-99.9,30.24,WSW,256,6.0,8.0,-999,-99.99,,,-99.99,,2013-04-19 08:22:00,
2013-04-19 01:33:00,49.0,-99.9,30.24,SW,232,4.0,8.0,-999,-99.99,,,-99.99,,2013-04-19 08:33:00,
2013-04-19 01:42:00,49.0,-99.9,30.24,WSW,243,6.0,9.0,-999,-99.99,,,-99.99,,2013-04-19 08:42:00,
2013-04-19 01:52:00,49.0,-99.9,30.23,WSW,248,4.0,11.0,-999,-99.99,,,-99.99,,2013-04-19 08:52:00,
2013-04-19 02:01:00,-999.0,-99.9,30.23,West,260,3.0,7.0,-999,-99.99,,,-99.99,,2013-04-19 09:01:00,
2013-04-19 02:12:00,49.0,-99.9,30.23,SW,234,2.0,4.0,-999,-99.99,,,-99.99,,2013-04-19 09:12:00,
2013-04-19 02:22:00,-999.0,-99.9,30.22,NW,308,1.0,3.0,-999,-99.99,,,-99.99,,2013-04-19 09:22:00,
2013-04-19 02:33:00,-999.0,-99.9,30.22,West,265,4.0,6.0,-999,-99.99,,,-99.99,,2013-04-19 09:33:00,
2013-04-19 02:43:00,49.0,-99.9,30.22,West,267,3.0,7.0,-999,-99.99,,,-99.99,,2013-04-19 09:43:00,
2013-04-19 02:52:00,49.0,-99.9,30.22,SW,232,3.0,6.0,-999,-99.99,,,-99.99,,2013-04-19 09:52:00,
2013-04-19 03:02:00,49.0,-99.9,30.22,WSW,237,4.0,9.0,-999,-99.99,,,-99.99,,2013-04-19 10:02:00,
2013-04-19 03:13:00,49.0,-99.9,30.22,WSW,253,5.0,10.0,-999,-99.99,,,-99.99,,2013-04-19 10:13:00,
2013-04-19 03:23:00,49.0,-99.9,30.22,West,259,4.0,10.0,-999,-99.99,,,-99.99,,2013-04-19 10:23:00,
2013-04-19 03:33:00,-999.0,-99.9,30.22,WSW,255,5.0,8.0,-999,-99.99,,,-99.99,,2013-04-19 10:33:00,
2013-04-19 03:42:00,49.0,-99.9,30.22,West,271,4.0,9.0,-999,-99.99,,,-99.99,,2013-04-19 10:42:00,
2013-04-19 03:52:00,49.0,-99.9,30.22,West,261,4.0,6.0,-999,-99.99,,,-99.99,,2013-04-19 10:52:00,
2013-04-19 04:03:00,49.0,-99.9,30.22,West,276,2.0,8.0,-999,-99.99,,,-99.99,,2013-04-19 11:03:00,
2013-04-19 04:11:00,49.0,-99.9,30.22,WSW,247,3.0,6.0,-999,-99.99,,,-99.99,,2013-04-19 11:11:00,
2013-04-19 04:22:00,-999.0,-99.9,30.22,SW,232,5.0,7.0,-999,-99.99,,,-99.99,,2013-04-19 11:22:00,
2013-04-19 04:32:00,49.0,-99.9,30.23,WSW,239,7.0,10.0,-999,-99.99,,,-99.99,,2013-04-19 11:32:00,
2013-04-19 04:43:00,49.0,-99.9,30.23,SW,235,5.0,9.0,-999,-99.99,,,-99.99,,2013-04-19 11:43:00,
2013-04-19 04:53:00,-999.0,-99.9,30.23,WSW,247,3.0,8.0,-999,-99.99,,,-99.99,,2013-04-19 11:53:00,
2013-04-19 05:03:00,-999.0,-99.9,30.23,SW,228,5.0,9.0,-999,-99.99,,,-99.99,,2013-04-19 12:03:00,
2013-04-19 05:12:00,-999.0,-99.9,30.23,West,260,4.0,8.0,-999,-99.99,,,-99.99,,2013-04-19 12:12:00,
2013-04-19 05:22:00,49.0,-99.9,30.23,WSW,249,4.0,7.0,-999,-99.99,,,-99.99,,2013-04-19 12:22:00,
2013-04-19 05:32:00,49.0,-99.9,30.23,West,280,2.0,3.0,-999,-99.99,,,-99.99,,2013-04-19 12:32:00,
2013-04-19 05:42:00,49.0,-99.9,30.23,WNW,294,3.0,4.0,-999,-99.99,,,-99.99,,2013-04-19 12:42:00,
2013-04-19 05:53:00,48.0,-99.9,30.22,WSW,247,2.0,3.0,-999,-99.99,,,-99.99,,2013-04-19 12:53:00,
2013-04-19 06:02:00,-999.0,-99.9,30.22,WNW,293,2.0,6.0,-999,-99.99,,,-99.99,,2013-04-19 13:02:00,
2013-04-19 06:11:00,49.0,-99.9,30.22,WNW,295,0.0,2.0,-999,-99.99,,,-99.99,,2013-04-19 13:11:00,
2013-04-19 06:22:00,49.0,-99.9,30.24,WSW,241,3.0,5.0,-999,-99.99,,,-99.99,,2013-04-19 13:22:00,
2013-04-19 06:32:00,-999.0,-99.9,30.24,SW,214,2.0,4.0,-999,-99.99,,,-99.99,,2013-04-19 13:32:00,
2013-04-19 06:42:00,49.0,-99.9,30.24,SW,227,0.0,4.0,-999,-99.99,,,-99.99,,2013-04-19 13:42:00,
2013-04-19 06:52:00,49.0,-99.9,30.24,West,269,2.0,5.0,-999,-99.99,,,-99.99,,2013-04-19 13:52:00,
2013-04-19 07:02:00,48.0,-99.9,30.24,North,-999,-999.0,-999.0,-999,-99.99,,,-99.99,,2013-04-19 14:02:00,
2013-04-19 07:11:00,48.0,-99.9,30.24,North,-999,-999.0,-999.0,-999,-99.99,,,-99.99,,2013-04-19 14:11:00,
2013-04-19 07:22:00,49.0,-99.9,30.24,WSW,248,4.0,6.0,-999,-99.99,,,-99.99,,2013-04-19 14:22:00,
2013-04-19 07:32:00,49.0,-99.9,30.24,WSW,245,5.0,9.0,-999,-99.99,,,-99.99,,2013-04-19 14:32:00,
2013-04-19 07:43:00,49.0,-99.9,30.24,SW,234,5.0,10.0,-999,-99.99,,,-99.99,,2013-04-19 14:43:00,
2013-04-19 07:52:00,49.0,-99.9,30.24,WSW,243,5.0,7.0,-999,-99.99,,,-99.99,,2013-04-19 14:52:00,
2013-04-19 08:02:00,50.0,-99.9,30.24,WSW,256,4.0,9.0,-999,-99.99,,,-99.99,,2013-04-19 15:02:00,
2013-04-19 08:12:00,50.0,-99.9,30.25,West,273,2.0,5.0,-999,-99.99,,,-99.99,,2013-04-19 15:12:00,
2013-04-19 08:22:00,-999.0,-99.9,30.25,WSW,238,3.0,6.0,-999,-99.99,,,-99.99,,2013-04-19 15:22:00,
2013-04-19 08:33:00,51.0,-99.9,30.25,WSW,257,6.0,8.0,-999,-99.99,,,-99.99,,2013-04-19 15:33:00,
2013-04-19 08:43:00,-999.0,-99.9,30.26,WSW,238,5.0,7.0,-999,-99.99,,,-99.99,,2013-04-19 15:43:00,
2013-04-19 08:52:00,51.0,-99.9,30.26,West,261,6.0,11.0,-999,-99.99,,,-99.99,,2013-04-19 15:52:00,
2013-04-19 09:03:00,51.0,-99.9,30.26,WSW,245,6.0,11.0,-999,-99.99,,,-99.99,,2013-04-19 16:03:00,
2013-04-19 09:13:00,51.0,-99.9,30.26,West,267,6.0,9.0,-999,-99.99,,,-99.99,,2013-04-19 16:13:00,
2013-04-19 09:23:00,51.0,-99.9,30.25,West,279,6.0,11.0,-999,-99.99,,,-99.99,,2013-04-19 16:23:00,
2013-04-19 09:33:00,51.0,-99.9,30.25,West,273,7.0,11.0,-999,-99.99,,,-99.99,,2013-04-19 16:33:00,
2013-04-19 09:43:00,52.0,-99.9,30.25,WSW,254,7.0,12.0,-999,-99.99,,,-99.99,,2013-04-19 16:43:00,
2013-04-19 09:53:00,-999.0,-99.9,30.26,West,264,11.0,14.0,-999,-99.99,,,-99.99,,2013-04-19 16:53:00,
2013-04-19 10:02:00,-999.0,-99.9,30.26,WSW,256,9.0,15.0,-999,-99.99,,,-99.99,,2013-04-19 17:02:00,
2013-04-19 10:12:00,52.0,-99.9,30.26,WSW,258,9.0,13.0,-999,-99.99,,,-99.99,,2013-04-19 17:12:00,
2013-04-19 10:22:00,53.0,-99.9,30.26,West,272,9.0,13.0,-999,-99.99,,,-99.99,,2013-04-19 17:22:00,
2013-04-19 10:33:00,52.0,-99.9,30.26,North,-999,-999.0,-999.0,-999,-99.99,,,-99.99,,2013-04-19 17:33:00,
2013-04-19 10:43:00,52.0,-99.9,30.26,West,267,10.0,14.0,-999,-99.99,,,-99.99,,2013-04-19 17:43:00,
2013-04-19 10:52:00,52.0,-99.9,30.26,West,263,7.0,15.0,-999,-99.99,,,-99.99,,2013-04-19 17:52:00,
2013-04-19 11:02:00,52.0,-99.9,30.25,West,266,9.0,13.0,-999,-99.99,,,-99.99,,2013-04-19 18:02:00,
2013-04-19 11:13:00,53.0,-99.9,30.25,West,268,7.0,10.0,-999,-99.99,,,-99.99,,2013-04-19 18:13:00,
2013-04-19 11:23:00,54.0,-99.9,30.25,West,266,6.0,10.0,-999,-99.99,,,-99.99,,2013-04-19 18:23:00,
2013-04-19 11:33:00,55.0,-99.9,30.25,West,265,4.0,8.0,-999,-99.99,,,-99.99,,2013-04-19 18:33:00,
2013-04-19 11:43:00,55.0,-99.9,30.25,WSW,253,8.0,10.0,-999,-99.99,,,-99.99,,2013-04-19 18:43:00,
2013-04-19 11:52:00,56.0,-99.9,30.24,West,280,9.0,11.0,-999,-99.99,,,-99.99,,2013-04-19 18:52:00,
2013-04-19 12:02:00,56.0,-99.9,30.24,West,259,6.0,12.0,-999,-99.99,,,-99.99,,2013-04-19 19:02:00,
2013-04-19 12:11:00,-999.0,-99.9,30.24,WNW,282,9.0,12.0,-999,-99.99,,,-99.99,,2013-04-19 19:11:00,
2013-04-19 12:22:00,55.0,-99.9,30.24,WNW,291,11.0,15.0,-999,-99.99,,,-99.99,,2013-04-19 19:22:00,
2013-04-19 12:32:00,-999.0,-99.9,30.24,West,266,14.0,21.0,-999,-99.99,,,-99.99,,2013-04-19 19:32:00,
2013-04-19 12:42:00,53.0,-99.9,30.24,West,268,13.0,20.0,-999,-99.99,,,-99.99,,2013-04-19 19:42:00,
2013-04-19 12:52:00,53.0,-99.9,30.24,West,270,9.0,14.0,-999,-99.99,,,-99.99,,2013-04-19 19:52:00,
2013-04-19 13:02:00,54.0,-99.9,30.23,WSW,257,9.0,15.0,-999,-99.99,,,-99.99,,2013-04-19 20:02:00,
2013-04-19 13:11:00,53.0,-99.9,30.23,West,276,10.0,15.0,-999,-99.99,,,-99.99,,2013-04-19 20:11:00,
2013-04-19 13:22:00,54.0,-99.9,30.23,WSW,239,8.0,14.0,-999,-99.99,,,-99.99,,2013-04-19 20:22:00,
2013-04-19 13:32:00,53.0,-99.9,30.22,WSW,242,13.0,17.0,-999,-99.99,,,-99.99,,2013-04-19 20:32:00,
2013-04-19 13:42:00,53.0,-99.9,30.22,WSW,252,9.0,17.0,-999,-99.99,,,-99.99,,2013-04-19 20:42:00,
2013-04-19 13:52:00,-999.0,-99.9,30.22,WSW,241,12.0,20.0,-999,-99.99,,,-99.99,,2013-04-19 20:52:00,
2013-04-19 14:01:00,53.0,-99.9,30.21,WSW,243,12.0,25.0,-999,-99.99,,,-99.99,,2013-04-19 21:01:00,
2013-04-19 14:12:00,52.0,-99.9,30.21,WSW,245,13.0,25.0,-999,-99.99,,,-99.99,,2013-04-19 21:12:00,
2013-04-19 14:22:00,53.0,-99.9,30.21,WSW,242,13.0,21.0,-999,-99.99,,,-99.99,,2013-04-19 21:22:00,
2013-04-19 14:32:00,53.0,-99.9,30.21,WSW,256,13.0,23.0,-999,-99.99,,,-99.99,,2013-04-19 21:32:00,
2013-04-19 14:43:00,53.0,-99.9,30.20,WSW,246,16.0,23.0,-999,-99.99,,,-99.99,,2013-04-19 21:43:00,
2013-04-19 14:53:00,-999.0,-99.9,30.20,WSW,240,13.0,21.0,-999,-99.99,,,-99.99,,2013-04-19 21:53:00,
2013-04-19 15:02:00,54.0,-99.9,30.19,WSW,243,14.0,19.0,-999,-99.99,,,-99.99,,2013-04-19 22:02:00,
2013-04-19 15:12:00,-999.0,-99.9,30.19,WSW,258,12.0,18.0,-999,-99.99,,,-99.99,,2013-04-19 22:12:00,
2013-04-19 15:23:00,56.0,-99.9,30.18,West,272,14.0,22.0,-999,-99.99,,,-99.99,,2013-04-19 22:23:00,
2013-04-19 15:33:00,55.0,-99.9,30.17,West,269,19.0,25.0,-999,-99.99,,,-99.99,,2013-04-19 22:33:00,
2013-04-19 15:42:00,-999.0,-99.9,30.18,WSW,256,13.0,25.0,-999,-99.99,,,-99.99,,2013-04-19 22:42:00,
2013-04-19 15:52:00,55.0,-99.9,30.17,West,267,13.0,25.0,-999,-99.99,,,-99.99,,2013-04-19 22:52:00,
2013-04-19 16:03:00,55.0,-99.9,30.17,WSW,258,13.0,23.0,-999,-99.99,,,-99.99,,2013-04-19 23:03:00,
2013-04-19 16:11:00,55.0,-99.9,30.16,SW,236,14.0,18.0,-999,-99.99,,,-99.99,,2013-04-19 23:11:00,
2013-04-19 16:32:00,55.0,-99.9,30.15,WSW,257,14.0,26.0,-999,-99.99,,,-99.99,,2013-04-19 23:32:00,
2013-04-19 16:42:00,55.0,-99.9,30.15,WSW,247,14.0,21.0,-999,-99.99,,,-99.99,,2013-04-19 23:42:00,
2013-04-19 16:53:00,-999.0,-99.9,30.14,WSW,249,16.0,22.0,-999,-99.99,,,-99.99,,2013-04-19 23:53:00,
2013-04-19 17:02:00,56.0,-99.9,30.14,WSW,249,18.0,25.0,-999,-99.99,,,-99.99,,2013-04-20 00:02:00,
2013-04-19 17:12:00,56.0,-99.9,30.13,WSW,242,21.0,27.0,-999,-99.99,,,-99.99,,2013-04-20 00:12:00,
2013-04-19 17:22:00,56.0,-99.9,30.13,WSW,243,22.0,29.0,-999,-99.99,,,-99.99,,2013-04-20 00:22:00,
2013-04-19 17:32:00,56.0,-99.9,30.12,WSW,249,17.0,24.0,-999,-99.99,,,-99.99,,2013-04-20 00:32:00,
2013-04-19 17:42:00,57.0,-99.9,30.13,WSW,249,14.0,23.0,-999,-99.99,,,-99.99,,2013-04-20 00:42:00,
2013-04-19 17:52:00,57.0,-99.9,30.13,WSW,249,12.0,21.0,-999,-99.99,,,-99.99,,2013-04-20 00:52:00,
2013-04-19 18:02:00,-999.0,-99.9,30.12,WSW,240,15.0,23.0,-999,-99.99,,,-99.99,,2013-04-20 01:02:00,
2013-04-19 18:11:00,58.0,-99.9,30.12,WSW,247,11.0,19.0,-999,-99.99,,,-99.99,,2013-04-20 01:11:00,
2013-04-19 18:21:00,58.0,-99.9,30.11,SW,228,18.0,22.0,-999,-99.99,,,-99.99,,2013-04-20 01:21:00,
2013-04-19 18:32:00,-999.0,-99.9,30.11,SW,232,14.0,22.0,-999,-99.99,,,-99.99,,2013-04-20 01:32:00,
2013-04-19 18:42:00,-999.0,-99.9,30.10,SW,229,18.0,22.0,-999,-99.99,,,-99.99,,2013-04-20 01:42:00,
2013-04-19 18:52:00,57.0,-99.9,30.10,SW,236,18.0,27.0,-999,-99.99,,,-99.99,,2013-04-20 01:52:00,
2013-04-19 19:02:00,58.0,-99.9,30.10,SW,232,17.0,23.0,-999,-99.99,,,-99.99,,2013-04-20 02:02:00,
2013-04-19 19:11:00,58.0,-99.9,30.10,SW,230,17.0,22.0,-999,-99.99,,,-99.99,,2013-04-20 02:11:00,
2013-04-19 19:22:00,59.0,-99.9,30.09,WSW,241,12.0,20.0,-999,-99.99,,,-99.99,,2013-04-20 02:22:00,
2013-04-19 19:32:00,59.0,-99.9,30.09,SW,230,18.0,23.0,-999,-99.99,,,-99.99,,2013-04-20 02:32:00,
2013-04-19 19:42:00,59.0,-99.9,30.09,SW,226,14.0,19.0,-999,-99.99,,,-99.99,,2013-04-20 02:42:00,
2013-04-19 19:52:00,59.0,-99.9,30.09,SW,228,16.0,22.0,-999,-99.99,,,-99.99,,2013-04-20 02:52:00,
2013-04-19 20:01:00,59.0,-99.9,30.09,WSW,237,12.0,19.0,-999,-99.99,,,-99.99,,2013-04-20 03:01:00,
2013-04-19 20:11:00,-999.0,-99.9,30.09,WSW,237,12.0,19.0,-999,-99.99,,,-99.99,,2013-04-20 03:11:00,
2013-04-19 20:21:00,59.0,-99.9,30.09,WSW,244,11.0,18.0,-999,-99.99,,,-99.99,,2013-04-20 03:21:00,
2013-04-19 20:33:00,-999.0,-99.9,30.08,WSW,242,13.0,18.0,-999,-99.99,,,-99.99,,2013-04-20 03:33:00,
2013-04-19 20:43:00,59.0,-99.9,30.08,WSW,243,17.0,26.0,-999,-99.99,,,-99.99,,2013-04-20 03:43:00,
2013-04-19 20:53:00,58.0,-99.9,30.08,WSW,243,15.0,21.0,-999,-99.99,,,-99.99,,2013-04-20 03:53:00,
2013-04-19 21:03:00,59.0,-99.9,30.08,SW,236,14.0,21.0,-999,-99.99,,,-99.99,,2013-04-20 04:03:00,
2013-04-19 21:12:00,59.0,-99.9,30.09,SW,236,14.0,19.0,-999,-99.99,,,-99.99,,2013-04-20 04:12:00,
2013-04-19 21:23:00,59.0,-99.9,30.09,WSW,238,14.0,21.0,-999,-99.99,,,-99.99,,2013-04-20 04:23:00,
2013-04-19 21:33:00,59.0,-99.9,30.09,North,-999,-999.0,-999.0,-999,-99.99,,,-99.99,,2013-04-20 04:33:00,
2013-04-19 21:43:00,-999.0,-99.9,30.09,WSW,239,14.0,21.0,-999,-99.99,,,-99.99,,2013-04-20 04:43:00,
2013-04-19 21:53:00,58.0,-99.9,30.10,ESE,110,5.0,16.0,-999,-99.99,,,-99.99,,2013-04-20 04:53:00,
2013-04-19 22:02:00,-999.0,-99.9,30.10,WSW,240,11.0,16.0,-999,-99.99,,,-99.99,,2013-04-20 05:02:00,
2013-04-19 22:12:00,59.0,-99.9,30.09,SW,235,10.0,15.0,-999,-99.99,,,-99.99,,2013-04-20 05:12:00,
2013-04-19 22:22:00,58.0,-99.9,30.09,WSW,249,13.0,17.0,-999,-99.99,,,-99.99,,2013-04-20 05:22:00,
2013-04-19 22:32:00,58.0,-99.9,30.10,WSW,252,13.0,20.0,-999,-99.99,,,-99.99,,2013-04-20 05:32:00,
2013-04-19 22:43:00,-999.0,-99.9,30.10,East,84,2.0,12.0,-999,-99.99,,,-99.99,,2013-04-20 05:43:00,
2013-04-19 22:52:00,58.0,-99.9,30.10,North,-999,-999.0,-999.0,-999,-99.99,,,-99.99,,2013-04-20 05:52:00,
2013-04-19 23:02:00,57.0,-99.9,30.10,SE,133,4.0,12.0,-999,-99.99,,,-99.99,,2013-04-20 06:02:00,
2013-04-19 23:12:00,57.0,-99.9,30.10,NNE,21,2.0,7.0,-999,-99.99,,,-99.99,,2013-04-20 06:12:00,
2013-04-19 23:22:00,57.0,-99.9,30.10,SSW,194,5.0,9.0,-999,-99.99,,,-99.99,,2013-04-20 06:22:00,
2013-04-19 23:32:00,56.0,-99.9,30.10,SW,214,5.0,9.0,-999,-99.99,,,-99.99,,2013-04-20 06:32:00,
2013-04-19 23:42:00,56.0,-99.9,30.10,SSW,199,7.0,12.0,-999,-99.99,,,-99.99,,2013-04-20 06:42:00,
2013-04-19 23:52:00,56.0,-99.9,30.10,SSW,213,8.0,11.0,-999,-99.99,,,-99.99,,2013-04-20 06:52:00,